Home > Products > Valid Products > TAF

000
FTUS42 KMFL 310250 AAA
TAFFLL
TAF AMD
KFLL 310250Z 3103/3124 26006KT P6SM FEW150 BKN300
     FM311400 18007KT P6SM VCSH SCT035
     FM311800 17010G20KT P6SM VCTS BKN045CB=



000
FTUS42 KMFL 310250 AAA
TAFFLL
TAF AMD
KFLL 310250Z 3103/3124 26006KT P6SM FEW150 BKN300
     FM311400 18007KT P6SM VCSH SCT035
     FM311800 17010G20KT P6SM VCTS BKN045CB=



000
FTUS42 KMFL 310250 AAA
TAFMIA
TAF AMD
KMIA 310250Z 3103/3124 25005KT P6SM FEW030 BKN190
     FM311400 16007KT P6SM VCSH SCT035
     FM311800 17010G20KT P6SM VCTS BKN045CB=



000
FTUS42 KMFL 310250 AAA
TAFPBI
TAF AMD
KPBI 310250Z 3103/3124 VRB03KT P6SM SCT045 SCT150 BKN220
     FM311400 19007KT P6SM VCSH SCT035
     FM311800 19010G20KT P6SM VCTS BKN045CB=



000
FTUS42 KMFL 310250 AAA
TAFPBI
TAF AMD
KPBI 310250Z 3103/3124 VRB03KT P6SM SCT045 SCT150 BKN220
     FM311400 19007KT P6SM VCSH SCT035
     FM311800 19010G20KT P6SM VCTS BKN045CB=



000
FTUS42 KMFL 310250 AAA
TAFAPF
TAF AMD
KAPF 310250Z 3103/3124 22004KT P6SM FEW025
     FM311400 17008KT P6SM SCT035
     FM311700 23010KT P6SM VCSH SCT035=



000
FTUS42 KMFL 310250 AAA
TAFAPF
TAF AMD
KAPF 310250Z 3103/3124 22004KT P6SM FEW025
     FM311400 17008KT P6SM SCT035
     FM311700 23010KT P6SM VCSH SCT035=



000
FTUS42 KMFL 310250 AAA
TAFMIA
TAF AMD
KMIA 310250Z 3103/3124 25005KT P6SM FEW030 BKN190
     FM311400 16007KT P6SM VCSH SCT035
     FM311800 17010G20KT P6SM VCTS BKN045CB=



000
FTUS42 KMFL 302338
TAFMIA
TAF
KMIA 302338Z 3100/3124 27007KT P6SM SCT045
     FM310300 23004KT P6SM SCT035
     FM311400 16007KT P6SM VCSH SCT035
     FM311800 17010G20KT P6SM VCTS BKN045CB=



000
FTUS42 KMFL 302338
TAFFLL
TAF
KFLL 302338Z 3100/3124 25007KT P6SM SCT045
     FM310300 24004KT P6SM SCT035
     FM311400 18007KT P6SM VCSH SCT035
     FM311800 17010G20KT P6SM VCTS BKN045CB=



000
FTUS42 KMFL 302338
TAFMIA
TAF
KMIA 302338Z 3100/3124 27007KT P6SM SCT045
     FM310300 23004KT P6SM SCT035
     FM311400 16007KT P6SM VCSH SCT035
     FM311800 17010G20KT P6SM VCTS BKN045CB=



000
FTUS42 KMFL 302338
TAFPBI
TAF
KPBI 302338Z 3100/3124 27007KT P6SM VCSH SCT045
     FM310300 24004KT P6SM SCT035
     FM311400 19007KT P6SM VCSH SCT035
     FM311800 19010G20KT P6SM VCTS BKN045CB=



000
FTUS42 KMFL 302338
TAFFLL
TAF
KFLL 302338Z 3100/3124 25007KT P6SM SCT045
     FM310300 24004KT P6SM SCT035
     FM311400 18007KT P6SM VCSH SCT035
     FM311800 17010G20KT P6SM VCTS BKN045CB=



000
FTUS42 KMFL 302338
TAFPBI
TAF
KPBI 302338Z 3100/3124 27007KT P6SM VCSH SCT045
     FM310300 24004KT P6SM SCT035
     FM311400 19007KT P6SM VCSH SCT035
     FM311800 19010G20KT P6SM VCTS BKN045CB=



000
FTUS42 KMFL 302338
TAFAPF
TAF
KAPF 302338Z 3100/3124 23008KT P6SM FEW025
     FM310300 23004KT P6SM FEW025
     FM311400 17008KT P6SM SCT035
     FM311700 23010KT P6SM VCSH SCT035=



000
FTUS42 KMFL 302338
TAFAPF
TAF
KAPF 302338Z 3100/3124 23008KT P6SM FEW025
     FM310300 23004KT P6SM FEW025
     FM311400 17008KT P6SM SCT035
     FM311700 23010KT P6SM VCSH SCT035=



000
FTUS42 KMFL 302106 AAA
TAFMIA
TAF AMD
KMIA 302106Z 3021/3118 27009KT P6SM VCSH SCT040
     FM310100 00000KT P6SM SCT035
     FM311400 19006KT P6SM SCT035=



000
FTUS42 KMFL 302106 AAA
TAFMIA
TAF AMD
KMIA 302106Z 3021/3118 27009KT P6SM VCSH SCT040
     FM310100 00000KT P6SM SCT035
     FM311400 19006KT P6SM SCT035=



000
FTUS42 KMFL 302106 AAA
TAFMIA
TAF AMD
KMIA 302106Z 3021/3118 27009KT P6SM VCSH SCT040
     FM310100 00000KT P6SM SCT035
     FM311400 19006KT P6SM SCT035=



000
FTUS42 KMFL 302106 AAB
TAFAPF
TAF AMD
KAPF 302106Z 3021/3118 24011KT P6SM SCT025
     FM310100 23003KT P6SM SCT035
     FM311300 21008KT P6SM SCT035=



000
FTUS42 KMFL 302106 AAB
TAFAPF
TAF AMD
KAPF 302106Z 3021/3118 24011KT P6SM SCT025
     FM310100 23003KT P6SM SCT035
     FM311300 21008KT P6SM SCT035=



000
FTUS42 KMFL 302105 AAB
TAFFLL
TAF AMD
KFLL 302105Z 3021/3118 29007KT P6SM VCSH SCT050
     FM310100 00000KT P6SM SCT035
     FM311400 19006KT P6SM SCT035=



000
FTUS42 KMFL 302105 AAB
TAFFLL
TAF AMD
KFLL 302105Z 3021/3118 29007KT P6SM VCSH SCT050
     FM310100 00000KT P6SM SCT035
     FM311400 19006KT P6SM SCT035=



000
FTUS42 KMFL 302105 AAB
TAFFLL
TAF AMD
KFLL 302105Z 3021/3118 29007KT P6SM VCSH SCT050
     FM310100 00000KT P6SM SCT035
     FM311400 19006KT P6SM SCT035=



000
FTUS42 KMFL 302105 AAB
TAFFLL
TAF AMD
KFLL 302105Z 3021/3118 29007KT P6SM VCSH SCT050
     FM310100 00000KT P6SM SCT035
     FM311400 19006KT P6SM SCT035=



000
FTUS42 KMFL 302104 AAA
TAFPBI
TAF AMD
KPBI 302104Z 3021/3118 26010KT P6SM VCSH SCT045
     FM310100 00000KT P6SM SCT035
     FM311400 21006KT P6SM SCT035=



000
FTUS42 KMFL 302104 AAA
TAFPBI
TAF AMD
KPBI 302104Z 3021/3118 26010KT P6SM VCSH SCT045
     FM310100 00000KT P6SM SCT035
     FM311400 21006KT P6SM SCT035=



000
FTUS42 KMFL 301941 AAA
TAFFLL
TAF AMD
KFLL 301941Z 3020/3118 25008KT P6SM VCSH SCT050
     FM310100 00000KT P6SM SCT035
     FM311400 19006KT P6SM SCT035=



000
FTUS42 KMFL 301941 AAA
TAFFLL
TAF AMD
KFLL 301941Z 3020/3118 25008KT P6SM VCSH SCT050
     FM310100 00000KT P6SM SCT035
     FM311400 19006KT P6SM SCT035=



000
FTUS42 KMFL 301940 AAA
TAFAPF
TAF AMD
KAPF 301940Z 3020/3118 22011KT P6SM SCT025
     FM310100 23003KT P6SM SCT035
     FM311300 21008KT P6SM SCT035=



000
FTUS42 KMFL 301940 AAA
TAFAPF
TAF AMD
KAPF 301940Z 3020/3118 22011KT P6SM SCT025
     FM310100 23003KT P6SM SCT035
     FM311300 21008KT P6SM SCT035=



000
FTUS42 KMFL 301720
TAFMIA
TAF
KMIA 301720Z 3018/3118 22009KT P6SM VCSH BKN035
     FM310100 00000KT P6SM SCT035
     FM311400 19006KT P6SM SCT035=



000
FTUS42 KMFL 301720
TAFMIA
TAF
KMIA 301720Z 3018/3118 22009KT P6SM VCSH BKN035
     FM310100 00000KT P6SM SCT035
     FM311400 19006KT P6SM SCT035=



000
FTUS42 KMFL 301720
TAFFLL
TAF
KFLL 301720Z 3018/3118 22013KT P6SM VCTS BKN035CB
     FM310100 00000KT P6SM SCT035
     FM311400 19006KT P6SM SCT035=



000
FTUS42 KMFL 301720
TAFPBI
TAF
KPBI 301720Z 3018/3118 24012KT P6SM VCTS BKN035CB
     FM310100 00000KT P6SM SCT035
     FM311400 21006KT P6SM SCT035=



000
FTUS42 KMFL 301720
TAFPBI
TAF
KPBI 301720Z 3018/3118 24012KT P6SM VCTS BKN035CB
     FM310100 00000KT P6SM SCT035
     FM311400 21006KT P6SM SCT035=



000
FTUS42 KMFL 301720
TAFPBI
TAF
KPBI 301720Z 3018/3118 24012KT P6SM VCTS BKN035CB
     FM310100 00000KT P6SM SCT035
     FM311400 21006KT P6SM SCT035=



000
FTUS42 KMFL 301720
TAFAPF
TAF
KAPF 301720Z 3018/3118 25011KT P6SM VCSH SCT035 BKN100
     FM310100 23003KT P6SM SCT035
     FM311300 21008KT P6SM SCT035=



000
FTUS42 KMFL 301720
TAFFLL
TAF
KFLL 301720Z 3018/3118 22013KT P6SM VCTS BKN035CB
     FM310100 00000KT P6SM SCT035
     FM311400 19006KT P6SM SCT035=



000
FTUS42 KMFL 301720
TAFFLL
TAF
KFLL 301720Z 3018/3118 22013KT P6SM VCTS BKN035CB
     FM310100 00000KT P6SM SCT035
     FM311400 19006KT P6SM SCT035=



000
FTUS42 KMFL 301720
TAFMIA
TAF
KMIA 301720Z 3018/3118 22009KT P6SM VCSH BKN035
     FM310100 00000KT P6SM SCT035
     FM311400 19006KT P6SM SCT035=



000
FTUS42 KMFL 301720
TAFPBI
TAF
KPBI 301720Z 3018/3118 24012KT P6SM VCTS BKN035CB
     FM310100 00000KT P6SM SCT035
     FM311400 21006KT P6SM SCT035=



000
FTUS42 KMFL 301720
TAFFLL
TAF
KFLL 301720Z 3018/3118 22013KT P6SM VCTS BKN035CB
     FM310100 00000KT P6SM SCT035
     FM311400 19006KT P6SM SCT035=



000
FTUS42 KMFL 301720
TAFAPF
TAF
KAPF 301720Z 3018/3118 25011KT P6SM VCSH SCT035 BKN100
     FM310100 23003KT P6SM SCT035
     FM311300 21008KT P6SM SCT035=



000
FTUS42 KMFL 301720
TAFAPF
TAF
KAPF 301720Z 3018/3118 25011KT P6SM VCSH SCT035 BKN100
     FM310100 23003KT P6SM SCT035
     FM311300 21008KT P6SM SCT035=



000
FTUS42 KMFL 301453 AAA
TAFPBI
TAF AMD
KPBI 301453Z 3015/3112 24009KT P6SM FEW025 BKN120
     FM301800 21014KT P6SM VCTS BKN035CB
     FM310100 26003KT P6SM SCT035=



000
FTUS42 KMFL 301453 AAA
TAFPBI
TAF AMD
KPBI 301453Z 3015/3112 24009KT P6SM FEW025 BKN120
     FM301800 21014KT P6SM VCTS BKN035CB
     FM310100 26003KT P6SM SCT035=



000
FTUS42 KMFL 301453 AAA
TAFMIA
TAF AMD
KMIA 301453Z 3015/3112 23008KT P6SM SCT080
     FM301800 20013KT P6SM VCTS BKN035CB
     FM310100 00000KT P6SM SCT035=



000
FTUS42 KMFL 301453 AAA
TAFPBI
TAF AMD
KPBI 301453Z 3015/3112 24009KT P6SM FEW025 BKN120
     FM301800 21014KT P6SM VCTS BKN035CB
     FM310100 26003KT P6SM SCT035=



000
FTUS42 KMFL 301453 AAA
TAFAPF
TAF AMD
KAPF 301453Z 3015/3112 28006KT P6SM VCSH SCT035 BKN100
     FM301800 25012KT P6SM VCTS SCT035CB BKN100
     FM310100 23004KT P6SM SCT035=



000
FTUS42 KMFL 301453 AAA
TAFFLL
TAF AMD
KFLL 301453Z 3015/3112 22009KT P6SM SCT090
     FM301800 20013KT P6SM VCTS BKN035CB
     FM310100 24003KT P6SM SCT035=



000
FTUS42 KMFL 301453 AAA
TAFMIA
TAF AMD
KMIA 301453Z 3015/3112 23008KT P6SM SCT080
     FM301800 20013KT P6SM VCTS BKN035CB
     FM310100 00000KT P6SM SCT035=



000
FTUS42 KMFL 301453 AAA
TAFFLL
TAF AMD
KFLL 301453Z 3015/3112 22009KT P6SM SCT090
     FM301800 20013KT P6SM VCTS BKN035CB
     FM310100 24003KT P6SM SCT035=



000
FTUS42 KMFL 301453 AAA
TAFAPF
TAF AMD
KAPF 301453Z 3015/3112 28006KT P6SM VCSH SCT035 BKN100
     FM301800 25012KT P6SM VCTS SCT035CB BKN100
     FM310100 23004KT P6SM SCT035=



000
FTUS42 KMFL 301453 AAA
TAFPBI
TAF AMD
KPBI 301453Z 3015/3112 24009KT P6SM FEW025 BKN120
     FM301800 21014KT P6SM VCTS BKN035CB
     FM310100 26003KT P6SM SCT035=



000
FTUS42 KMFL 301453 AAA
TAFMIA
TAF AMD
KMIA 301453Z 3015/3112 23008KT P6SM SCT080
     FM301800 20013KT P6SM VCTS BKN035CB
     FM310100 00000KT P6SM SCT035=



000
FTUS42 KMFL 301453 AAA
TAFFLL
TAF AMD
KFLL 301453Z 3015/3112 22009KT P6SM SCT090
     FM301800 20013KT P6SM VCTS BKN035CB
     FM310100 24003KT P6SM SCT035=



000
FTUS42 KMFL 301453 AAA
TAFAPF
TAF AMD
KAPF 301453Z 3015/3112 28006KT P6SM VCSH SCT035 BKN100
     FM301800 25012KT P6SM VCTS SCT035CB BKN100
     FM310100 23004KT P6SM SCT035=



000
FTUS42 KMFL 301145
TAFPBI
TAF
KPBI 301145Z 3012/3112 23006KT P6SM FEW150 BKN250
     FM301400 23010KT P6SM SCT035
     FM301800 21014KT P6SM VCTS BKN035CB
     FM310100 26003KT P6SM SCT035=



000
FTUS42 KMFL 301145
TAFMIA
TAF
KMIA 301145Z 3012/3112 23004KT P6SM SCT200
     FM301400 21009KT P6SM SCT035
     FM301800 20013KT P6SM VCTS BKN035CB
     FM310100 00000KT P6SM SCT035=



000
FTUS42 KMFL 301145
TAFAPF
TAF
KAPF 301145Z 3012/3112 27005KT P6SM VCTS SCT030CB SCT200
     FM301500 25012KT P6SM VCTS SCT035CB BKN100
     FM310100 23004KT P6SM SCT035=



000
FTUS42 KMFL 301145
TAFFLL
TAF
KFLL 301145Z 3012/3112 26005KT P6SM FEW025 SCT200
     FM301400 21010KT P6SM SCT035
     FM301800 20013KT P6SM VCTS BKN035CB
     FM310100 24003KT P6SM SCT035=



000
FTUS42 KMFL 301145
TAFFLL
TAF
KFLL 301145Z 3012/3112 26005KT P6SM FEW025 SCT200
     FM301400 21010KT P6SM SCT035
     FM301800 20013KT P6SM VCTS BKN035CB
     FM310100 24003KT P6SM SCT035=



000
FTUS42 KMFL 301145
TAFPBI
TAF
KPBI 301145Z 3012/3112 23006KT P6SM FEW150 BKN250
     FM301400 23010KT P6SM SCT035
     FM301800 21014KT P6SM VCTS BKN035CB
     FM310100 26003KT P6SM SCT035=



000
FTUS42 KMFL 301145
TAFMIA
TAF
KMIA 301145Z 3012/3112 23004KT P6SM SCT200
     FM301400 21009KT P6SM SCT035
     FM301800 20013KT P6SM VCTS BKN035CB
     FM310100 00000KT P6SM SCT035=



000
FTUS42 KMFL 301145
TAFAPF
TAF
KAPF 301145Z 3012/3112 27005KT P6SM VCTS SCT030CB SCT200
     FM301500 25012KT P6SM VCTS SCT035CB BKN100
     FM310100 23004KT P6SM SCT035=



000
FTUS42 KMFL 301145
TAFFLL
TAF
KFLL 301145Z 3012/3112 26005KT P6SM FEW025 SCT200
     FM301400 21010KT P6SM SCT035
     FM301800 20013KT P6SM VCTS BKN035CB
     FM310100 24003KT P6SM SCT035=



000
FTUS42 KMFL 301145
TAFPBI
TAF
KPBI 301145Z 3012/3112 23006KT P6SM FEW150 BKN250
     FM301400 23010KT P6SM SCT035
     FM301800 21014KT P6SM VCTS BKN035CB
     FM310100 26003KT P6SM SCT035=



000
FTUS42 KMFL 301145
TAFMIA
TAF
KMIA 301145Z 3012/3112 23004KT P6SM SCT200
     FM301400 21009KT P6SM SCT035
     FM301800 20013KT P6SM VCTS BKN035CB
     FM310100 00000KT P6SM SCT035=



000
FTUS42 KMFL 301145
TAFAPF
TAF
KAPF 301145Z 3012/3112 27005KT P6SM VCTS SCT030CB SCT200
     FM301500 25012KT P6SM VCTS SCT035CB BKN100
     FM310100 23004KT P6SM SCT035=



000
FTUS42 KMFL 300942 AAC
TAFAPF
TAF AMD
KAPF 300942Z 3010/3106 28005KT 4SM TSRA BKN030CB
     FM301030 28005KT P6SM VCTS SCT030CB SCT200
     FM301300 24010KT P6SM VCSH SCT035
     FM310100 24006KT P6SM SCT035=



000
FTUS42 KMFL 300942 AAC
TAFAPF
TAF AMD
KAPF 300942Z 3010/3106 28005KT 4SM TSRA BKN030CB
     FM301030 28005KT P6SM VCTS SCT030CB SCT200
     FM301300 24010KT P6SM VCSH SCT035
     FM310100 24006KT P6SM SCT035=



000
FTUS42 KMFL 300906 AAB
TAFAPF
TAF AMD
KAPF 300906Z 3009/3106 28005KT P6SM VCSH SCT030 SCT200
     FM301300 24010KT P6SM VCSH SCT035
     FM310100 24006KT P6SM SCT035=



000
FTUS42 KMFL 300906 AAB
TAFAPF
TAF AMD
KAPF 300906Z 3009/3106 28005KT P6SM VCSH SCT030 SCT200
     FM301300 24010KT P6SM VCSH SCT035
     FM310100 24006KT P6SM SCT035=



000
FTUS42 KMFL 300833 AAA
TAFFLL
TAF AMD
KFLL 300833Z 3009/3106 26005KT P6SM FEW025 BKN200
     FM301400 21010KT P6SM SCT035
     FM301800 21012KT P6SM VCTS BKN035CB
     FM310200 VRB03KT P6SM SCT035=



000
FTUS42 KMFL 300833 AAA
TAFMIA
TAF AMD
KMIA 300833Z 3009/3106 VRB03KT P6SM SCT200
     FM301400 20010KT P6SM SCT035
     FM301800 21012KT P6SM VCTS BKN035CB
     FM310100 VRB03KT P6SM SCT035=



000
FTUS42 KMFL 300833 AAA
TAFPBI
TAF AMD
KPBI 300833Z 3009/3106 23006KT P6SM BKN250
     FM301400 22010KT P6SM SCT035
     FM301800 22015KT P6SM SHRA BKN035 PROB30 3018/3024 VRB10G25KT
      4SM TSRA BKN035CB
     FM310100 26005KT P6SM SCT035=



000
FTUS42 KMFL 300833 AAA
TAFAPF
TAF AMD
KAPF 300833Z 3009/3106 28005KT P6SM FEW200
     FM301300 24010KT P6SM VCSH SCT035
     FM310100 24006KT P6SM SCT035=



000
FTUS42 KMFL 300833 AAA
TAFFLL
TAF AMD
KFLL 300833Z 3009/3106 26005KT P6SM FEW025 BKN200
     FM301400 21010KT P6SM SCT035
     FM301800 21012KT P6SM VCTS BKN035CB
     FM310200 VRB03KT P6SM SCT035=



000
FTUS42 KMFL 300833 AAA
TAFMIA
TAF AMD
KMIA 300833Z 3009/3106 VRB03KT P6SM SCT200
     FM301400 20010KT P6SM SCT035
     FM301800 21012KT P6SM VCTS BKN035CB
     FM310100 VRB03KT P6SM SCT035=



000
FTUS42 KMFL 300833 AAA
TAFFLL
TAF AMD
KFLL 300833Z 3009/3106 26005KT P6SM FEW025 BKN200
     FM301400 21010KT P6SM SCT035
     FM301800 21012KT P6SM VCTS BKN035CB
     FM310200 VRB03KT P6SM SCT035=



000
FTUS42 KMFL 300833 AAA
TAFMIA
TAF AMD
KMIA 300833Z 3009/3106 VRB03KT P6SM SCT200
     FM301400 20010KT P6SM SCT035
     FM301800 21012KT P6SM VCTS BKN035CB
     FM310100 VRB03KT P6SM SCT035=



000
FTUS42 KMFL 300833 AAA
TAFAPF
TAF AMD
KAPF 300833Z 3009/3106 28005KT P6SM FEW200
     FM301300 24010KT P6SM VCSH SCT035
     FM310100 24006KT P6SM SCT035=



000
FTUS42 KMFL 300833 AAA
TAFPBI
TAF AMD
KPBI 300833Z 3009/3106 23006KT P6SM BKN250
     FM301400 22010KT P6SM SCT035
     FM301800 22015KT P6SM SHRA BKN035 PROB30 3018/3024 VRB10G25KT
      4SM TSRA BKN035CB
     FM310100 26005KT P6SM SCT035=



000
FTUS42 KMFL 300833 AAA
TAFFLL
TAF AMD
KFLL 300833Z 3009/3106 26005KT P6SM FEW025 BKN200
     FM301400 21010KT P6SM SCT035
     FM301800 21012KT P6SM VCTS BKN035CB
     FM310200 VRB03KT P6SM SCT035=



000
FTUS42 KMFL 300833 AAA
TAFAPF
TAF AMD
KAPF 300833Z 3009/3106 28005KT P6SM FEW200
     FM301300 24010KT P6SM VCSH SCT035
     FM310100 24006KT P6SM SCT035=



000
FTUS42 KMFL 300833 AAA
TAFPBI
TAF AMD
KPBI 300833Z 3009/3106 23006KT P6SM BKN250
     FM301400 22010KT P6SM SCT035
     FM301800 22015KT P6SM SHRA BKN035 PROB30 3018/3024 VRB10G25KT
      4SM TSRA BKN035CB
     FM310100 26005KT P6SM SCT035=



000
FTUS42 KMFL 300540
TAFFLL
TAF
KFLL 300540Z 3006/3106 27005KT P6SM FEW015 BKN200
     FM301400 21010KT P6SM SCT035
     FM301800 21012KT P6SM VCTS BKN035CB
     FM310200 VRB03KT P6SM SCT035=



000
FTUS42 KMFL 300540
TAFAPF
TAF
KAPF 300540Z 3006/3106 27005KT P6SM FEW200
     FM301300 24010KT P6SM VCSH SCT035
     FM310100 24006KT P6SM SCT035=



000
FTUS42 KMFL 300540
TAFMIA
TAF
KMIA 300540Z 3006/3106 26006KT P6SM SCT200
     FM301400 20010KT P6SM SCT035
     FM301800 21012KT P6SM VCTS BKN035CB
     FM310100 VRB03KT P6SM SCT035=



000
FTUS42 KMFL 300540
TAFPBI
TAF
KPBI 300540Z 3006/3106 VRB03KT P6SM BKN250
     FM301400 22010KT P6SM SCT035
     FM301800 22015KT P6SM SHRA BKN035 PROB30 3018/3024 VRB10G25KT
      4SM TSRA BKN035CB
     FM310100 26005KT P6SM SCT035=



000
FTUS42 KMFL 300540
TAFAPF
TAF
KAPF 300540Z 3006/3106 27005KT P6SM FEW200
     FM301300 24010KT P6SM VCSH SCT035
     FM310100 24006KT P6SM SCT035=



000
FTUS42 KMFL 300540
TAFMIA
TAF
KMIA 300540Z 3006/3106 26006KT P6SM SCT200
     FM301400 20010KT P6SM SCT035
     FM301800 21012KT P6SM VCTS BKN035CB
     FM310100 VRB03KT P6SM SCT035=



000
FTUS42 KMFL 300540
TAFFLL
TAF
KFLL 300540Z 3006/3106 27005KT P6SM FEW015 BKN200
     FM301400 21010KT P6SM SCT035
     FM301800 21012KT P6SM VCTS BKN035CB
     FM310200 VRB03KT P6SM SCT035=



000
FTUS42 KMFL 300540
TAFPBI
TAF
KPBI 300540Z 3006/3106 VRB03KT P6SM BKN250
     FM301400 22010KT P6SM SCT035
     FM301800 22015KT P6SM SHRA BKN035 PROB30 3018/3024 VRB10G25KT
      4SM TSRA BKN035CB
     FM310100 26005KT P6SM SCT035=



000
FTUS42 KMFL 292334
TAFMIA
TAF
KMIA 292334Z 3000/3024 06005KT P6SM FEW035 BKN250
     FM300200 26005KT P6SM FEW035 SCT250
     FM301500 21007KT P6SM VCSH SCT035
     FM301800 21010G20KT P6SM VCTS BKN035CB=



000
FTUS42 KMFL 292334
TAFFLL
TAF
KFLL 292334Z 3000/3024 VRB04KT P6SM FEW035 BKN250
     FM300200 25005KT P6SM FEW035 SCT250
     FM301500 23007KT P6SM VCSH SCT035
     FM301800 21010G20KT P6SM VCTS BKN035CB=



000
FTUS42 KMFL 292334
TAFAPF
TAF
KAPF 292334Z 3000/3024 26005KT P6SM FEW025
     FM301300 23008KT P6SM VCSH SCT035
     FM301800 24010G20KT P6SM VCSH SCT035 BKN060=



000
FTUS42 KMFL 292334
TAFPBI
TAF
KPBI 292334Z 3000/3024 25006KT P6SM SCT045 BKN250
     FM301500 24008KT P6SM VCSH SCT035
     FM301800 22012G22KT P6SM VCTS BKN035CB=



000
FTUS42 KMFL 292334
TAFFLL
TAF
KFLL 292334Z 3000/3024 VRB04KT P6SM FEW035 BKN250
     FM300200 25005KT P6SM FEW035 SCT250
     FM301500 23007KT P6SM VCSH SCT035
     FM301800 21010G20KT P6SM VCTS BKN035CB=



000
FTUS42 KMFL 292334
TAFAPF
TAF
KAPF 292334Z 3000/3024 26005KT P6SM FEW025
     FM301300 23008KT P6SM VCSH SCT035
     FM301800 24010G20KT P6SM VCSH SCT035 BKN060=



000
FTUS42 KMFL 292334
TAFPBI
TAF
KPBI 292334Z 3000/3024 25006KT P6SM SCT045 BKN250
     FM301500 24008KT P6SM VCSH SCT035
     FM301800 22012G22KT P6SM VCTS BKN035CB=



000
FTUS42 KMFL 292334
TAFMIA
TAF
KMIA 292334Z 3000/3024 06005KT P6SM FEW035 BKN250
     FM300200 26005KT P6SM FEW035 SCT250
     FM301500 21007KT P6SM VCSH SCT035
     FM301800 21010G20KT P6SM VCTS BKN035CB=



000
FTUS42 KMFL 291909 AAA
TAFFLL
TAF AMD
KFLL 291909Z 2919/3018 27010KT P6SM VCSH SCT035 BKN180
     FM300100 VRB04KT P6SM SCT200
     FM301400 24008KT P6SM SCT030=



000
FTUS42 KMFL 291909 AAA
TAFFLL
TAF AMD
KFLL 291909Z 2919/3018 27010KT P6SM VCSH SCT035 BKN180
     FM300100 VRB04KT P6SM SCT200
     FM301400 24008KT P6SM SCT030=



000
FTUS42 KMFL 291909 AAA
TAFFLL
TAF AMD
KFLL 291909Z 2919/3018 27010KT P6SM VCSH SCT035 BKN180
     FM300100 VRB04KT P6SM SCT200
     FM301400 24008KT P6SM SCT030=



000
FTUS42 KMFL 291821 AAA
TAFPBI
TAF AMD
KPBI 291821Z 2918/3018 29012G22KT 5SM TSRA BKN035CB BKN150
     FM291900 26010KT P6SM VCSH BKN035
     FM300100 24003KT P6SM SCT035
     FM301500 24008KT P6SM SCT030=



000
FTUS42 KMFL 291821 AAA
TAFPBI
TAF AMD
KPBI 291821Z 2918/3018 29012G22KT 5SM TSRA BKN035CB BKN150
     FM291900 26010KT P6SM VCSH BKN035
     FM300100 24003KT P6SM SCT035
     FM301500 24008KT P6SM SCT030=



000
FTUS42 KMFL 291721
TAFPBI
TAF
KPBI 291721Z 2918/3018 26010KT P6SM VCTS SCT035CB BKN150
     FM300100 24003KT P6SM SCT035
     FM301500 24008KT P6SM SCT030=



000
FTUS42 KMFL 291721
TAFAPF
TAF
KAPF 291721Z 2918/3018 33010KT P6SM VCTS SCT035CB
     FM300100 VRB03KT P6SM SCT200
     FM301400 25010KT P6SM SCT030=



000
FTUS42 KMFL 291721
TAFMIA
TAF
KMIA 291721Z 2918/3018 22008KT P6SM SCT035 BKN200
     FM300000 VRB03KT P6SM SCT200
     FM301600 22008KT P6SM SCT030=



000
FTUS42 KMFL 291721
TAFMIA
TAF
KMIA 291721Z 2918/3018 22008KT P6SM SCT035 BKN200
     FM300000 VRB03KT P6SM SCT200
     FM301600 22008KT P6SM SCT030=



000
FTUS42 KMFL 291721
TAFPBI
TAF
KPBI 291721Z 2918/3018 26010KT P6SM VCTS SCT035CB BKN150
     FM300100 24003KT P6SM SCT035
     FM301500 24008KT P6SM SCT030=



000
FTUS42 KMFL 291721
TAFFLL
TAF
KFLL 291721Z 2918/3018 23008KT P6SM SCT035 BKN180
     FM300100 VRB04KT P6SM SCT200
     FM301400 24008KT P6SM SCT030=



000
FTUS42 KMFL 291721
TAFFLL
TAF
KFLL 291721Z 2918/3018 23008KT P6SM SCT035 BKN180
     FM300100 VRB04KT P6SM SCT200
     FM301400 24008KT P6SM SCT030=



000
FTUS42 KMFL 291721
TAFAPF
TAF
KAPF 291721Z 2918/3018 33010KT P6SM VCTS SCT035CB
     FM300100 VRB03KT P6SM SCT200
     FM301400 25010KT P6SM SCT030=



000
FTUS42 KMFL 291721
TAFPBI
TAF
KPBI 291721Z 2918/3018 26010KT P6SM VCTS SCT035CB BKN150
     FM300100 24003KT P6SM SCT035
     FM301500 24008KT P6SM SCT030=



000
FTUS42 KMFL 291721
TAFPBI
TAF
KPBI 291721Z 2918/3018 26010KT P6SM VCTS SCT035CB BKN150
     FM300100 24003KT P6SM SCT035
     FM301500 24008KT P6SM SCT030=



000
FTUS42 KMFL 291721
TAFMIA
TAF
KMIA 291721Z 2918/3018 22008KT P6SM SCT035 BKN200
     FM300000 VRB03KT P6SM SCT200
     FM301600 22008KT P6SM SCT030=



000
FTUS42 KMFL 291721
TAFAPF
TAF
KAPF 291721Z 2918/3018 33010KT P6SM VCTS SCT035CB
     FM300100 VRB03KT P6SM SCT200
     FM301400 25010KT P6SM SCT030=



000
FTUS42 KMFL 291721
TAFFLL
TAF
KFLL 291721Z 2918/3018 23008KT P6SM SCT035 BKN180
     FM300100 VRB04KT P6SM SCT200
     FM301400 24008KT P6SM SCT030=



000
FTUS42 KMFL 291721
TAFMIA
TAF
KMIA 291721Z 2918/3018 22008KT P6SM SCT035 BKN200
     FM300000 VRB03KT P6SM SCT200
     FM301600 22008KT P6SM SCT030=



000
FTUS42 KMFL 291721
TAFAPF
TAF
KAPF 291721Z 2918/3018 33010KT P6SM VCTS SCT035CB
     FM300100 VRB03KT P6SM SCT200
     FM301400 25010KT P6SM SCT030=



000
FTUS42 KMFL 291721
TAFFLL
TAF
KFLL 291721Z 2918/3018 23008KT P6SM SCT035 BKN180
     FM300100 VRB04KT P6SM SCT200
     FM301400 24008KT P6SM SCT030=



000
FTUS42 KMFL 291522 AAA
TAFMIA
TAF AMD
KMIA 291522Z 2915/3012 24008KT P6SM SCT035 SCT250
     FM300000 VRB03KT P6SM SCT200=



000
FTUS42 KMFL 291522 AAA
TAFMIA
TAF AMD
KMIA 291522Z 2915/3012 24008KT P6SM SCT035 SCT250
     FM300000 VRB03KT P6SM SCT200=



000
FTUS42 KMFL 291521 AAA
TAFFLL
TAF AMD
KFLL 291521Z 2915/3012 23008KT P6SM SCT035 SCT250
     FM300100 VRB04KT P6SM SCT200=



000
FTUS42 KMFL 291521 AAA
TAFFLL
TAF AMD
KFLL 291521Z 2915/3012 23008KT P6SM SCT035 SCT250
     FM300100 VRB04KT P6SM SCT200=



000
FTUS42 KMFL 291521 AAA
TAFPBI
TAF AMD
KPBI 291521Z 2915/3012 26010KT P6SM VCSH SCT035 BKN250
     FM300000 24005KT P6SM SCT035=



000
FTUS42 KMFL 291521 AAA
TAFPBI
TAF AMD
KPBI 291521Z 2915/3012 26010KT P6SM VCSH SCT035 BKN250
     FM300000 24005KT P6SM SCT035=



000
FTUS42 KMFL 291520 AAE
TAFAPF
TAF AMD
KAPF 291520Z 2915/3012 26008KT P6SM VCTS FEW008 SCT035CB BKN250
      TEMPO 2915/2916 4SM TSRA BKN025CB
     FM291800 31015KT P6SM VCTS SCT035CB
     FM300100 VRB03KT P6SM SCT200=



000
FTUS42 KMFL 291520 AAE
TAFAPF
TAF AMD
KAPF 291520Z 2915/3012 26008KT P6SM VCTS FEW008 SCT035CB BKN250
      TEMPO 2915/2916 4SM TSRA BKN025CB
     FM291800 31015KT P6SM VCTS SCT035CB
     FM300100 VRB03KT P6SM SCT200=



000
FTUS42 KMFL 291502 AAD
TAFAPF
TAF AMD
KAPF 291502Z 2915/3012 26008KT P6SM VCTS FEW008 SCT035CB BKN250
      TEMPO 2915/2916 1/4SM TSRA BKN025CB
     FM291800 31015KT P6SM VCTS SCT035CB
     FM300100 VRB03KT P6SM SCT200=



000
FTUS42 KMFL 291502 AAD
TAFAPF
TAF AMD
KAPF 291502Z 2915/3012 26008KT P6SM VCTS FEW008 SCT035CB BKN250
      TEMPO 2915/2916 1/4SM TSRA BKN025CB
     FM291800 31015KT P6SM VCTS SCT035CB
     FM300100 VRB03KT P6SM SCT200=



000
FTUS42 KMFL 291452 AAC
TAFAPF
TAF AMD
KAPF 291452Z 2915/3012 26008KT P6SM VCTS SCT035CB SCT250
      TEMPO 2915/2916 1SM TS BKN025CB
     FM291800 31015KT P6SM VCTS SCT035CB
     FM300100 VRB03KT P6SM SCT200=



000
FTUS42 KMFL 291452 AAC
TAFAPF
TAF AMD
KAPF 291452Z 2915/3012 26008KT P6SM VCTS SCT035CB SCT250
      TEMPO 2915/2916 1SM TS BKN025CB
     FM291800 31015KT P6SM VCTS SCT035CB
     FM300100 VRB03KT P6SM SCT200=



000
FTUS42 KMFL 291452 AAC
TAFAPF
TAF AMD
KAPF 291452Z 2915/3012 26008KT P6SM VCTS SCT035CB SCT250
      TEMPO 2915/2916 1SM TS BKN025CB
     FM291800 31015KT P6SM VCTS SCT035CB
     FM300100 VRB03KT P6SM SCT200=



000
FTUS42 KMFL 291445 AAB
TAFAPF
TAF AMD
KAPF 291445Z 2915/3012 26008KT P6SM VCTS SCT035CB SCT250
     FM291800 31015KT P6SM VCTS SCT035CB
     FM300100 VRB03KT P6SM SCT200=



000
FTUS42 KMFL 291445 AAB
TAFAPF
TAF AMD
KAPF 291445Z 2915/3012 26008KT P6SM VCTS SCT035CB SCT250
     FM291800 31015KT P6SM VCTS SCT035CB
     FM300100 VRB03KT P6SM SCT200=



000
FTUS42 KMFL 291445 AAB
TAFAPF
TAF AMD
KAPF 291445Z 2915/3012 26008KT P6SM VCTS SCT035CB SCT250
     FM291800 31015KT P6SM VCTS SCT035CB
     FM300100 VRB03KT P6SM SCT200=



000
FTUS42 KMFL 291237 AAA
TAFAPF
TAF AMD
KAPF 291237Z 2913/3012 26008KT P6SM VCSH SCT035 SCT250
     FM291800 31015KT P6SM VCSH SCT035
     FM300100 VRB03KT P6SM SCT200=



000
FTUS42 KMFL 291237 AAA
TAFAPF
TAF AMD
KAPF 291237Z 2913/3012 26008KT P6SM VCSH SCT035 SCT250
     FM291800 31015KT P6SM VCSH SCT035
     FM300100 VRB03KT P6SM SCT200=



000
FTUS42 KMFL 291237 AAA
TAFAPF
TAF AMD
KAPF 291237Z 2913/3012 26008KT P6SM VCSH SCT035 SCT250
     FM291800 31015KT P6SM VCSH SCT035
     FM300100 VRB03KT P6SM SCT200=



000
FTUS42 KMFL 291237 AAA
TAFAPF
TAF AMD
KAPF 291237Z 2913/3012 26008KT P6SM VCSH SCT035 SCT250
     FM291800 31015KT P6SM VCSH SCT035
     FM300100 VRB03KT P6SM SCT200=



000
FTUS42 KMFL 291138
TAFFLL
TAF
KFLL 291138Z 2912/3012 21005KT P6SM SCT250
     FM291400 23008KT P6SM SCT035 SCT250
     FM300100 VRB04KT P6SM SCT200=



000
FTUS42 KMFL 291138
TAFAPF
TAF
KAPF 291138Z 2912/3012 26006KT P6SM BKN030
     FM291300 26008KT P6SM VCSH SCT035 SCT250
     FM291800 31015KT P6SM VCSH SCT035
     FM300100 VRB03KT P6SM SCT200=



000
FTUS42 KMFL 291138
TAFMIA
TAF
KMIA 291138Z 2912/3012 VRB03KT P6SM SCT250
     FM291400 24008KT P6SM SCT035 SCT250
     FM300000 VRB03KT P6SM SCT200=



000
FTUS42 KMFL 291138
TAFAPF
TAF
KAPF 291138Z 2912/3012 26006KT P6SM BKN030
     FM291300 26008KT P6SM VCSH SCT035 SCT250
     FM291800 31015KT P6SM VCSH SCT035
     FM300100 VRB03KT P6SM SCT200=



000
FTUS42 KMFL 291138
TAFFLL
TAF
KFLL 291138Z 2912/3012 21005KT P6SM SCT250
     FM291400 23008KT P6SM SCT035 SCT250
     FM300100 VRB04KT P6SM SCT200=



000
FTUS42 KMFL 291138
TAFPBI
TAF
KPBI 291138Z 2912/3012 24006KT P6SM SCT250
     FM291400 26010KT P6SM VCSH SCT035 BKN250
     FM300000 24005KT P6SM SCT035=



000
FTUS42 KMFL 291138
TAFFLL
TAF
KFLL 291138Z 2912/3012 21005KT P6SM SCT250
     FM291400 23008KT P6SM SCT035 SCT250
     FM300100 VRB04KT P6SM SCT200=



000
FTUS42 KMFL 291138
TAFMIA
TAF
KMIA 291138Z 2912/3012 VRB03KT P6SM SCT250
     FM291400 24008KT P6SM SCT035 SCT250
     FM300000 VRB03KT P6SM SCT200=



000
FTUS42 KMFL 291138
TAFPBI
TAF
KPBI 291138Z 2912/3012 24006KT P6SM SCT250
     FM291400 26010KT P6SM VCSH SCT035 BKN250
     FM300000 24005KT P6SM SCT035=



000
FTUS42 KMFL 291138
TAFAPF
TAF
KAPF 291138Z 2912/3012 26006KT P6SM BKN030
     FM291300 26008KT P6SM VCSH SCT035 SCT250
     FM291800 31015KT P6SM VCSH SCT035
     FM300100 VRB03KT P6SM SCT200=



000
FTUS42 KMFL 291138
TAFFLL
TAF
KFLL 291138Z 2912/3012 21005KT P6SM SCT250
     FM291400 23008KT P6SM SCT035 SCT250
     FM300100 VRB04KT P6SM SCT200=



000
FTUS42 KMFL 291138
TAFPBI
TAF
KPBI 291138Z 2912/3012 24006KT P6SM SCT250
     FM291400 26010KT P6SM VCSH SCT035 BKN250
     FM300000 24005KT P6SM SCT035=



000
FTUS42 KMFL 291138
TAFMIA
TAF
KMIA 291138Z 2912/3012 VRB03KT P6SM SCT250
     FM291400 24008KT P6SM SCT035 SCT250
     FM300000 VRB03KT P6SM SCT200=



000
FTUS42 KMFL 291138
TAFMIA
TAF
KMIA 291138Z 2912/3012 VRB03KT P6SM SCT250
     FM291400 24008KT P6SM SCT035 SCT250
     FM300000 VRB03KT P6SM SCT200=



000
FTUS42 KMFL 291138
TAFAPF
TAF
KAPF 291138Z 2912/3012 26006KT P6SM BKN030
     FM291300 26008KT P6SM VCSH SCT035 SCT250
     FM291800 31015KT P6SM VCSH SCT035
     FM300100 VRB03KT P6SM SCT200=



000
FTUS42 KMFL 291138
TAFPBI
TAF
KPBI 291138Z 2912/3012 24006KT P6SM SCT250
     FM291400 26010KT P6SM VCSH SCT035 BKN250
     FM300000 24005KT P6SM SCT035=



000
FTUS42 KMFL 290933 AAA
TAFAPF
TAF AMD
KAPF 290933Z 2910/3006 26006KT P6SM SCT250
     FM291300 26008KT P6SM VCSH SCT035 SCT250
     FM300100 VRB03KT P6SM SCT200=



000
FTUS42 KMFL 290933 AAA
TAFAPF
TAF AMD
KAPF 290933Z 2910/3006 26006KT P6SM SCT250
     FM291300 26008KT P6SM VCSH SCT035 SCT250
     FM300100 VRB03KT P6SM SCT200=



000
FTUS42 KMFL 290933 AAA
TAFFLL
TAF AMD
KFLL 290933Z 2910/3006 21005KT P6SM SCT250
     FM291400 23008KT P6SM SCT035 SCT250
     FM300100 VRB04KT P6SM SCT200=



000
FTUS42 KMFL 290933 AAA
TAFFLL
TAF AMD
KFLL 290933Z 2910/3006 21005KT P6SM SCT250
     FM291400 23008KT P6SM SCT035 SCT250
     FM300100 VRB04KT P6SM SCT200=



000
FTUS42 KMFL 290933 AAA
TAFPBI
TAF AMD
KPBI 290933Z 2910/3006 24006KT P6SM SCT250
     FM291400 26010KT P6SM VCSH SCT035 BKN250
     FM300000 24005KT P6SM SCT035=



000
FTUS42 KMFL 290933 AAA
TAFPBI
TAF AMD
KPBI 290933Z 2910/3006 24006KT P6SM SCT250
     FM291400 26010KT P6SM VCSH SCT035 BKN250
     FM300000 24005KT P6SM SCT035=



000
FTUS42 KMFL 290933 AAA
TAFMIA
TAF AMD
KMIA 290933Z 2910/3006 VRB03KT P6SM SCT250
     FM291400 24008KT P6SM SCT035 SCT250
     FM300000 VRB03KT P6SM SCT200=



000
FTUS42 KMFL 290933 AAA
TAFMIA
TAF AMD
KMIA 290933Z 2910/3006 VRB03KT P6SM SCT250
     FM291400 24008KT P6SM SCT035 SCT250
     FM300000 VRB03KT P6SM SCT200=



000
FTUS42 KMFL 290520
TAFFLL
TAF
KFLL 290520Z 2906/3006 26006KT P6SM SCT250
     FM291400 23008KT P6SM SCT035 SCT250
     FM300100 VRB04KT P6SM SCT200=



000
FTUS42 KMFL 290520
TAFPBI
TAF
KPBI 290520Z 2906/3006 25008KT P6SM SCT250
     FM291400 26010KT P6SM VCSH SCT035 BKN250
     FM300000 24005KT P6SM SCT035=



000
FTUS42 KMFL 290520
TAFAPF
TAF
KAPF 290520Z 2906/3006 26005KT P6SM SCT250
     FM291400 26008KT P6SM FEW035 SCT250
     FM300100 VRB03KT P6SM SCT200=



000
FTUS42 KMFL 290520
TAFFLL
TAF
KFLL 290520Z 2906/3006 26006KT P6SM SCT250
     FM291400 23008KT P6SM SCT035 SCT250
     FM300100 VRB04KT P6SM SCT200=



000
FTUS42 KMFL 290520
TAFMIA
TAF
KMIA 290520Z 2906/3006 25006KT P6SM SCT250
     FM291400 24008KT P6SM SCT035 SCT250
     FM300000 VRB03KT P6SM SCT200=



000
FTUS42 KMFL 290520
TAFPBI
TAF
KPBI 290520Z 2906/3006 25008KT P6SM SCT250
     FM291400 26010KT P6SM VCSH SCT035 BKN250
     FM300000 24005KT P6SM SCT035=



000
FTUS42 KMFL 290520
TAFAPF
TAF
KAPF 290520Z 2906/3006 26005KT P6SM SCT250
     FM291400 26008KT P6SM FEW035 SCT250
     FM300100 VRB03KT P6SM SCT200=



000
FTUS42 KMFL 290520
TAFMIA
TAF
KMIA 290520Z 2906/3006 25006KT P6SM SCT250
     FM291400 24008KT P6SM SCT035 SCT250
     FM300000 VRB03KT P6SM SCT200=



000
FTUS42 KMFL 282336 AAA
TAFAPF
TAF AMD
KAPF 282336Z 2900/2924 25009KT P6SM VCSH FEW025 SCT150
     FM290200 26005KT P6SM FEW025 SCT250
     FM291500 25010KT P6SM FEW025 SCT050=



000
FTUS42 KMFL 282336 AAA
TAFAPF
TAF AMD
KAPF 282336Z 2900/2924 25009KT P6SM VCSH FEW025 SCT150
     FM290200 26005KT P6SM FEW025 SCT250
     FM291500 25010KT P6SM FEW025 SCT050=



000
FTUS42 KMFL 282336 AAA
TAFAPF
TAF AMD
KAPF 282336Z 2900/2924 25009KT P6SM VCSH FEW025 SCT150
     FM290200 26005KT P6SM FEW025 SCT250
     FM291500 25010KT P6SM FEW025 SCT050=



000
FTUS42 KMFL 282336 AAA
TAFAPF
TAF AMD
KAPF 282336Z 2900/2924 25009KT P6SM VCSH FEW025 SCT150
     FM290200 26005KT P6SM FEW025 SCT250
     FM291500 25010KT P6SM FEW025 SCT050=



000
FTUS42 KMFL 282333
TAFAPF
TAF
KAPF 282333Z 2900/2924 25009KT P6SM FEW025 SCT150
     FM290200 26005KT P6SM FEW025 SCT250
     FM291500 25010KT P6SM FEW025 SCT050=



000
FTUS42 KMFL 282333
TAFFLL
TAF
KFLL 282333Z 2900/2924 19010KT P6SM SCT050 SCT250
     FM290200 23004KT P6SM FEW025 SCT250
     FM291500 22010KT P6SM VCSH SCT025=



000
FTUS42 KMFL 282333
TAFAPF
TAF
KAPF 282333Z 2900/2924 25009KT P6SM FEW025 SCT150
     FM290200 26005KT P6SM FEW025 SCT250
     FM291500 25010KT P6SM FEW025 SCT050=



000
FTUS42 KMFL 282333
TAFMIA
TAF
KMIA 282333Z 2900/2924 26010KT P6SM FEW035 SCT250
     FM290200 24004KT P6SM FEW025 SCT250
     FM291500 21010KT P6SM VCSH SCT025=



000
FTUS42 KMFL 282333
TAFPBI
TAF
KPBI 282333Z 2900/2924 26010KT P6SM SCT045 BKN250
     FM290200 25005KT P6SM FEW025 SCT250
     FM291500 26010KT P6SM VCSH SCT025=



000
FTUS42 KMFL 282333
TAFPBI
TAF
KPBI 282333Z 2900/2924 26010KT P6SM SCT045 BKN250
     FM290200 25005KT P6SM FEW025 SCT250
     FM291500 26010KT P6SM VCSH SCT025=



000
FTUS42 KMFL 282333
TAFFLL
TAF
KFLL 282333Z 2900/2924 19010KT P6SM SCT050 SCT250
     FM290200 23004KT P6SM FEW025 SCT250
     FM291500 22010KT P6SM VCSH SCT025=



000
FTUS42 KMFL 282333
TAFAPF
TAF
KAPF 282333Z 2900/2924 25009KT P6SM FEW025 SCT150
     FM290200 26005KT P6SM FEW025 SCT250
     FM291500 25010KT P6SM FEW025 SCT050=



000
FTUS42 KMFL 282333
TAFPBI
TAF
KPBI 282333Z 2900/2924 26010KT P6SM SCT045 BKN250
     FM290200 25005KT P6SM FEW025 SCT250
     FM291500 26010KT P6SM VCSH SCT025=



000
FTUS42 KMFL 282333
TAFMIA
TAF
KMIA 282333Z 2900/2924 26010KT P6SM FEW035 SCT250
     FM290200 24004KT P6SM FEW025 SCT250
     FM291500 21010KT P6SM VCSH SCT025=



000
FTUS42 KMFL 282333
TAFAPF
TAF
KAPF 282333Z 2900/2924 25009KT P6SM FEW025 SCT150
     FM290200 26005KT P6SM FEW025 SCT250
     FM291500 25010KT P6SM FEW025 SCT050=



000
FTUS42 KMFL 282333
TAFMIA
TAF
KMIA 282333Z 2900/2924 26010KT P6SM FEW035 SCT250
     FM290200 24004KT P6SM FEW025 SCT250
     FM291500 21010KT P6SM VCSH SCT025=



000
FTUS42 KMFL 282333
TAFFLL
TAF
KFLL 282333Z 2900/2924 19010KT P6SM SCT050 SCT250
     FM290200 23004KT P6SM FEW025 SCT250
     FM291500 22010KT P6SM VCSH SCT025=



000
FTUS42 KMFL 282333
TAFPBI
TAF
KPBI 282333Z 2900/2924 26010KT P6SM SCT045 BKN250
     FM290200 25005KT P6SM FEW025 SCT250
     FM291500 26010KT P6SM VCSH SCT025=



000
FTUS42 KMFL 282333
TAFMIA
TAF
KMIA 282333Z 2900/2924 26010KT P6SM FEW035 SCT250
     FM290200 24004KT P6SM FEW025 SCT250
     FM291500 21010KT P6SM VCSH SCT025=



000
FTUS42 KMFL 282111 AAC
TAFPBI
TAF AMD
KPBI 282111Z 2821/2918 17010KT P6SM SCT035 BKN250
     FM290000 23005KT P6SM SCT025 BKN250=



000
FTUS42 KMFL 282111 AAC
TAFPBI
TAF AMD
KPBI 282111Z 2821/2918 17010KT P6SM SCT035 BKN250
     FM290000 23005KT P6SM SCT025 BKN250=



000
FTUS42 KMFL 282110 AAA
TAFAPF
TAF AMD
KAPF 282110Z 2821/2918 23009KT P6SM SCT025
     FM290000 24006KT P6SM FEW040 SCT250=



000
FTUS42 KMFL 282110 AAA
TAFAPF
TAF AMD
KAPF 282110Z 2821/2918 23009KT P6SM SCT025
     FM290000 24006KT P6SM FEW040 SCT250=



000
FTUS42 KMFL 282110 AAB
TAFFLL
TAF AMD
KFLL 282110Z 2821/2918 15008KT P6SM FEW035 BKN050 BKN250
     FM290000 23008KT P6SM SCT025 SCT250=



000
FTUS42 KMFL 282110 AAB
TAFFLL
TAF AMD
KFLL 282110Z 2821/2918 15008KT P6SM FEW035 BKN050 BKN250
     FM290000 23008KT P6SM SCT025 SCT250=



000
FTUS42 KMFL 282110 AAB
TAFFLL
TAF AMD
KFLL 282110Z 2821/2918 15008KT P6SM FEW035 BKN050 BKN250
     FM290000 23008KT P6SM SCT025 SCT250=



000
FTUS42 KMFL 282109 AAB
TAFMIA
TAF AMD
KMIA 282109Z 2821/2918 14008KT P6SM SCT035 BKN250
     FM290000 22004KT P6SM SCT025 SCT250=



000
FTUS42 KMFL 282109 AAB
TAFMIA
TAF AMD
KMIA 282109Z 2821/2918 14008KT P6SM SCT035 BKN250
     FM290000 22004KT P6SM SCT025 SCT250=



000
FTUS42 KMFL 282108 AAA
TAFFLL
TAF AMD
KFLL 282108Z 2821/2918 25008KT P6SM FEW035 BKN050 BKN250
     FM290000 23008KT P6SM SCT025 SCT250=



000
FTUS42 KMFL 282108 AAA
TAFFLL
TAF AMD
KFLL 282108Z 2821/2918 25008KT P6SM FEW035 BKN050 BKN250
     FM290000 23008KT P6SM SCT025 SCT250=



000
FTUS42 KMFL 282105 AAB
TAFPBI
TAF AMD
KPBI 282105Z 2821/2918 24012KT P6SM SCT035 BKN250
     FM290000 23005KT P6SM SCT025 BKN250=



000
FTUS42 KMFL 282105 AAB
TAFPBI
TAF AMD
KPBI 282105Z 2821/2918 24012KT P6SM SCT035 BKN250
     FM290000 23005KT P6SM SCT025 BKN250=



000
FTUS42 KMFL 281940 AAA
TAFMIA
TAF AMD
KMIA 281940Z 2820/2918 25006KT P6SM SCT040 BKN250
     FM290000 22004KT P6SM SCT025 SCT250=



000
FTUS42 KMFL 281940 AAA
TAFMIA
TAF AMD
KMIA 281940Z 2820/2918 25006KT P6SM SCT040 BKN250
     FM290000 22004KT P6SM SCT025 SCT250=



000
FTUS42 KMFL 281933 AAA
TAFPBI
TAF AMD
KPBI 281933Z 2820/2918 24012KT P6SM SCT035 BKN250
     FM290000 23005KT P6SM SCT025 BKN250=



000
FTUS42 KMFL 281933 AAA
TAFPBI
TAF AMD
KPBI 281933Z 2820/2918 24012KT P6SM SCT035 BKN250
     FM290000 23005KT P6SM SCT025 BKN250=



000
FTUS42 KMFL 281933 AAA
TAFPBI
TAF AMD
KPBI 281933Z 2820/2918 24012KT P6SM SCT035 BKN250
     FM290000 23005KT P6SM SCT025 BKN250=



000
FTUS42 KMFL 281933 AAA
TAFPBI
TAF AMD
KPBI 281933Z 2820/2918 24012KT P6SM SCT035 BKN250
     FM290000 23005KT P6SM SCT025 BKN250=



000
FTUS42 KMFL 281737
TAFFLL
TAF
KFLL 281737Z 2818/2918 25008KT P6SM FEW035 SCT050 BKN250
     FM281900 17012KT P6SM VCSH SCT035 SCT050 BKN250
     FM290000 23008KT P6SM SCT025 SCT250=



000
FTUS42 KMFL 281737
TAFAPF
TAF
KAPF 281737Z 2818/2918 25009KT P6SM SCT026 SCT250
     FM281900 25012KT P6SM VCSH SCT025 SCT050 BKN250
     FM290000 24006KT P6SM FEW040 SCT250=



000
FTUS42 KMFL 281737
TAFMIA
TAF
KMIA 281737Z 2818/2918 25006KT P6SM SCT040 BKN250
     FM281900 19011G16KT P6SM VCSH SCT035 SCT050 BKN250
     FM290000 22004KT P6SM SCT025 SCT250=



000
FTUS42 KMFL 281737
TAFFLL
TAF
KFLL 281737Z 2818/2918 25008KT P6SM FEW035 SCT050 BKN250
     FM281900 17012KT P6SM VCSH SCT035 SCT050 BKN250
     FM290000 23008KT P6SM SCT025 SCT250=



000
FTUS42 KMFL 281737
TAFMIA
TAF
KMIA 281737Z 2818/2918 25006KT P6SM SCT040 BKN250
     FM281900 19011G16KT P6SM VCSH SCT035 SCT050 BKN250
     FM290000 22004KT P6SM SCT025 SCT250=



000
FTUS42 KMFL 281737
TAFPBI
TAF
KPBI 281737Z 2818/2918 23011KT P6SM SCT035 BKN050 BKN250
     FM281900 19013G18KT P6SM VCSH SCT035 SCT050 BKN250
     FM290000 23005KT P6SM SCT025 BKN250=



000
FTUS42 KMFL 281737
TAFPBI
TAF
KPBI 281737Z 2818/2918 23011KT P6SM SCT035 BKN050 BKN250
     FM281900 19013G18KT P6SM VCSH SCT035 SCT050 BKN250
     FM290000 23005KT P6SM SCT025 BKN250=



000
FTUS42 KMFL 281737
TAFAPF
TAF
KAPF 281737Z 2818/2918 25009KT P6SM SCT026 SCT250
     FM281900 25012KT P6SM VCSH SCT025 SCT050 BKN250
     FM290000 24006KT P6SM FEW040 SCT250=



000
FTUS42 KMFL 281737
TAFPBI
TAF
KPBI 281737Z 2818/2918 23011KT P6SM SCT035 BKN050 BKN250
     FM281900 19013G18KT P6SM VCSH SCT035 SCT050 BKN250
     FM290000 23005KT P6SM SCT025 BKN250=



000
FTUS42 KMFL 281737
TAFPBI
TAF
KPBI 281737Z 2818/2918 23011KT P6SM SCT035 BKN050 BKN250
     FM281900 19013G18KT P6SM VCSH SCT035 SCT050 BKN250
     FM290000 23005KT P6SM SCT025 BKN250=



000
FTUS42 KMFL 281737
TAFAPF
TAF
KAPF 281737Z 2818/2918 25009KT P6SM SCT026 SCT250
     FM281900 25012KT P6SM VCSH SCT025 SCT050 BKN250
     FM290000 24006KT P6SM FEW040 SCT250=



000
FTUS42 KMFL 281737
TAFMIA
TAF
KMIA 281737Z 2818/2918 25006KT P6SM SCT040 BKN250
     FM281900 19011G16KT P6SM VCSH SCT035 SCT050 BKN250
     FM290000 22004KT P6SM SCT025 SCT250=



000
FTUS42 KMFL 281737
TAFFLL
TAF
KFLL 281737Z 2818/2918 25008KT P6SM FEW035 SCT050 BKN250
     FM281900 17012KT P6SM VCSH SCT035 SCT050 BKN250
     FM290000 23008KT P6SM SCT025 SCT250=



000
FTUS42 KMFL 281737
TAFMIA
TAF
KMIA 281737Z 2818/2918 25006KT P6SM SCT040 BKN250
     FM281900 19011G16KT P6SM VCSH SCT035 SCT050 BKN250
     FM290000 22004KT P6SM SCT025 SCT250=



000
FTUS42 KMFL 281737
TAFFLL
TAF
KFLL 281737Z 2818/2918 25008KT P6SM FEW035 SCT050 BKN250
     FM281900 17012KT P6SM VCSH SCT035 SCT050 BKN250
     FM290000 23008KT P6SM SCT025 SCT250=



000
FTUS42 KMFL 281537 AAA
TAFAPF
TAF AMD
KAPF 281537Z 2816/2912 23009KT P6SM VCSH SCT030 SCT250
     FM281700 24012KT P6SM VCSH SCT030 BKN080
     FM290000 24008KT P6SM SCT200=



000
FTUS42 KMFL 281537 AAA
TAFAPF
TAF AMD
KAPF 281537Z 2816/2912 23009KT P6SM VCSH SCT030 SCT250
     FM281700 24012KT P6SM VCSH SCT030 BKN080
     FM290000 24008KT P6SM SCT200=



000
FTUS42 KMFL 281534 AAA
TAFMIA
TAF AMD
KMIA 281534Z 2816/2912 25005KT P6SM SCT035 BKN250
     FM281800 19011G16KT P6SM VCSH SCT035 SCT050 BKN250
     FM290100 VRB03KT P6SM FEW250=



000
FTUS42 KMFL 281534 AAA
TAFMIA
TAF AMD
KMIA 281534Z 2816/2912 25005KT P6SM SCT035 BKN250
     FM281800 19011G16KT P6SM VCSH SCT035 SCT050 BKN250
     FM290100 VRB03KT P6SM FEW250=



000
FTUS42 KMFL 281529 AAA
TAFFLL
TAF AMD
KFLL 281529Z 2815/2912 22008KT P6SM FEW028 BKN250
     FM281600 19010KT P6SM SCT035 BKN250
     FM281800 17012KT P6SM VCSH SCT035 SCT050 BKN250
     FM290200 23005KT P6SM SCT025 SCT250=



000
FTUS42 KMFL 281529 AAA
TAFFLL
TAF AMD
KFLL 281529Z 2815/2912 22008KT P6SM FEW028 BKN250
     FM281600 19010KT P6SM SCT035 BKN250
     FM281800 17012KT P6SM VCSH SCT035 SCT050 BKN250
     FM290200 23005KT P6SM SCT025 SCT250=



000
FTUS42 KMFL 281522 AAA
TAFPBI
TAF AMD
KPBI 281522Z 2815/2912 21012KT P6SM SCT025 BKN250
     FM281800 19013G18KT P6SM VCSH SCT035 SCT050
     FM290100 22008KT P6SM SCT025 BKN250=



000
FTUS42 KMFL 281522 AAA
TAFPBI
TAF AMD
KPBI 281522Z 2815/2912 21012KT P6SM SCT025 BKN250
     FM281800 19013G18KT P6SM VCSH SCT035 SCT050
     FM290100 22008KT P6SM SCT025 BKN250=



000
FTUS42 KMFL 281132
TAFPBI
TAF
KPBI 281132Z 2812/2912 19004KT P6SM FEW025 SCT250
     FM281400 20012KT P6SM SCT035
     FM281800 22013G18KT P6SM VCSH SCT035 SCT050
     FM290100 22008KT P6SM SCT025 BKN250=



000
FTUS42 KMFL 281132
TAFAPF
TAF
KAPF 281132Z 2812/2912 20005KT P6SM FEW023 SCT250
     FM281400 22008KT P6SM VCSH SCT030 BKN250
     FM281700 24012KT P6SM VCSH SCT030 BKN080
     FM290000 24008KT P6SM SCT200=



000
FTUS42 KMFL 281132
TAFMIA
TAF
KMIA 281132Z 2812/2912 VRB03KT P6SM FEW035 SCT250
     FM281400 19010KT P6SM SCT035
     FM281800 19011G16KT P6SM VCSH SCT035 SCT050
     FM290100 VRB03KT P6SM FEW250=



000
FTUS42 KMFL 281132
TAFMIA
TAF
KMIA 281132Z 2812/2912 VRB03KT P6SM FEW035 SCT250
     FM281400 19010KT P6SM SCT035
     FM281800 19011G16KT P6SM VCSH SCT035 SCT050
     FM290100 VRB03KT P6SM FEW250=



000
FTUS42 KMFL 281132
TAFFLL
TAF
KFLL 281132Z 2812/2912 VRB03KT 5SM BR FEW250
     FM281300 23004KT P6SM FEW250
     FM281500 19010KT P6SM SCT035
     FM281800 17012KT P6SM VCSH SCT035 SCT050
     FM290200 23005KT P6SM SCT025 SCT250=



000
FTUS42 KMFL 281132
TAFAPF
TAF
KAPF 281132Z 2812/2912 20005KT P6SM FEW023 SCT250
     FM281400 22008KT P6SM VCSH SCT030 BKN250
     FM281700 24012KT P6SM VCSH SCT030 BKN080
     FM290000 24008KT P6SM SCT200=



000
FTUS42 KMFL 281132
TAFFLL
TAF
KFLL 281132Z 2812/2912 VRB03KT 5SM BR FEW250
     FM281300 23004KT P6SM FEW250
     FM281500 19010KT P6SM SCT035
     FM281800 17012KT P6SM VCSH SCT035 SCT050
     FM290200 23005KT P6SM SCT025 SCT250=



000
FTUS42 KMFL 281049 AAB
TAFFLL
TAF AMD
KFLL 281049Z 2811/2906 VRB03KT 5SM BR FEW250
     FM281300 VRB03KT P6SM FEW250
     FM281400 19010KT P6SM SCT035
     FM281800 17012KT P6SM VCSH SCT035
     FM290200 23005KT P6SM SCT025 SCT250=



000
FTUS42 KMFL 281049 AAB
TAFFLL
TAF AMD
KFLL 281049Z 2811/2906 VRB03KT 5SM BR FEW250
     FM281300 VRB03KT P6SM FEW250
     FM281400 19010KT P6SM SCT035
     FM281800 17012KT P6SM VCSH SCT035
     FM290200 23005KT P6SM SCT025 SCT250=



000
FTUS42 KMFL 281049 AAB
TAFFLL
TAF AMD
KFLL 281049Z 2811/2906 VRB03KT 5SM BR FEW250
     FM281300 VRB03KT P6SM FEW250
     FM281400 19010KT P6SM SCT035
     FM281800 17012KT P6SM VCSH SCT035
     FM290200 23005KT P6SM SCT025 SCT250=



000
FTUS42 KMFL 281049 AAB
TAFFLL
TAF AMD
KFLL 281049Z 2811/2906 VRB03KT 5SM BR FEW250
     FM281300 VRB03KT P6SM FEW250
     FM281400 19010KT P6SM SCT035
     FM281800 17012KT P6SM VCSH SCT035
     FM290200 23005KT P6SM SCT025 SCT250=



000
FTUS42 KMFL 280901 AAA
TAFPBI
TAF AMD
KPBI 280901Z 2809/2906 VRB03KT P6SM FEW250
     FM281400 20012KT P6SM SCT035
     FM281800 22012KT P6SM VCSH SCT035
     FM290100 22008KT P6SM SCT025 BKN250=



000
FTUS42 KMFL 280901 AAA
TAFMIA
TAF AMD
KMIA 280901Z 2809/2906 VRB03KT P6SM FEW250
     FM281400 19010KT P6SM SCT035
     FM290100 VRB03KT P6SM FEW250=



000
FTUS42 KMFL 280901 AAA
TAFFLL
TAF AMD
KFLL 280901Z 2809/2906 VRB03KT P6SM FEW200
     FM281400 19010KT P6SM SCT035
     FM281800 17012KT P6SM VCSH SCT035
     FM290200 23005KT P6SM SCT025 SCT250=



000
FTUS42 KMFL 280901 AAA
TAFPBI
TAF AMD
KPBI 280901Z 2809/2906 VRB03KT P6SM FEW250
     FM281400 20012KT P6SM SCT035
     FM281800 22012KT P6SM VCSH SCT035
     FM290100 22008KT P6SM SCT025 BKN250=



000
FTUS42 KMFL 280901 AAA
TAFAPF
TAF AMD
KAPF 280901Z 2809/2906 21005KT P6SM FEW250
     FM281200 22008KT P6SM VCSH SCT030 BKN100
     FM281700 24012KT P6SM VCSH SCT030 BKN080
     FM290000 24008KT P6SM SCT200=



000
FTUS42 KMFL 280901 AAA
TAFFLL
TAF AMD
KFLL 280901Z 2809/2906 VRB03KT P6SM FEW200
     FM281400 19010KT P6SM SCT035
     FM281800 17012KT P6SM VCSH SCT035
     FM290200 23005KT P6SM SCT025 SCT250=



000
FTUS42 KMFL 280901 AAA
TAFMIA
TAF AMD
KMIA 280901Z 2809/2906 VRB03KT P6SM FEW250
     FM281400 19010KT P6SM SCT035
     FM290100 VRB03KT P6SM FEW250=



000
FTUS42 KMFL 280901 AAA
TAFPBI
TAF AMD
KPBI 280901Z 2809/2906 VRB03KT P6SM FEW250
     FM281400 20012KT P6SM SCT035
     FM281800 22012KT P6SM VCSH SCT035
     FM290100 22008KT P6SM SCT025 BKN250=



000
FTUS42 KMFL 280901 AAA
TAFAPF
TAF AMD
KAPF 280901Z 2809/2906 21005KT P6SM FEW250
     FM281200 22008KT P6SM VCSH SCT030 BKN100
     FM281700 24012KT P6SM VCSH SCT030 BKN080
     FM290000 24008KT P6SM SCT200=



000
FTUS42 KMFL 280901 AAA
TAFFLL
TAF AMD
KFLL 280901Z 2809/2906 VRB03KT P6SM FEW200
     FM281400 19010KT P6SM SCT035
     FM281800 17012KT P6SM VCSH SCT035
     FM290200 23005KT P6SM SCT025 SCT250=



000
FTUS42 KMFL 280901 AAA
TAFMIA
TAF AMD
KMIA 280901Z 2809/2906 VRB03KT P6SM FEW250
     FM281400 19010KT P6SM SCT035
     FM290100 VRB03KT P6SM FEW250=



000
FTUS42 KMFL 280901 AAA
TAFAPF
TAF AMD
KAPF 280901Z 2809/2906 21005KT P6SM FEW250
     FM281200 22008KT P6SM VCSH SCT030 BKN100
     FM281700 24012KT P6SM VCSH SCT030 BKN080
     FM290000 24008KT P6SM SCT200=



000
FTUS42 KMFL 280540
TAFFLL
TAF
KFLL 280540Z 2806/2906 VRB03KT P6SM FEW200
     FM281400 19010KT P6SM SCT035
     FM281800 17012KT P6SM VCSH SCT035
     FM290200 23005KT P6SM SCT025 SCT250=



000
FTUS42 KMFL 280540
TAFFLL
TAF
KFLL 280540Z 2806/2906 VRB03KT P6SM FEW200
     FM281400 19010KT P6SM SCT035
     FM281800 17012KT P6SM VCSH SCT035
     FM290200 23005KT P6SM SCT025 SCT250=



000
FTUS42 KMFL 280540
TAFAPF
TAF
KAPF 280540Z 2806/2906 VRB03KT P6SM SCT250
     FM281200 22008KT P6SM VCSH SCT030 BKN100
     FM281700 24012KT P6SM VCSH SCT030 BKN080
     FM290000 24008KT P6SM SCT200=



000
FTUS42 KMFL 280540
TAFMIA
TAF
KMIA 280540Z 2806/2906 VRB03KT P6SM FEW250
     FM281400 19010KT P6SM SCT035
     FM290100 VRB03KT P6SM FEW250=



000
FTUS42 KMFL 280540
TAFPBI
TAF
KPBI 280540Z 2806/2906 20005KT P6SM SCT150
     FM281400 20012KT P6SM SCT035
     FM281800 22012KT P6SM VCSH SCT035
     FM290100 22008KT P6SM SCT025 BKN250=



000
FTUS42 KMFL 280540
TAFFLL
TAF
KFLL 280540Z 2806/2906 VRB03KT P6SM FEW200
     FM281400 19010KT P6SM SCT035
     FM281800 17012KT P6SM VCSH SCT035
     FM290200 23005KT P6SM SCT025 SCT250=



000
FTUS42 KMFL 280540
TAFAPF
TAF
KAPF 280540Z 2806/2906 VRB03KT P6SM SCT250
     FM281200 22008KT P6SM VCSH SCT030 BKN100
     FM281700 24012KT P6SM VCSH SCT030 BKN080
     FM290000 24008KT P6SM SCT200=



000
FTUS42 KMFL 280540
TAFPBI
TAF
KPBI 280540Z 2806/2906 20005KT P6SM SCT150
     FM281400 20012KT P6SM SCT035
     FM281800 22012KT P6SM VCSH SCT035
     FM290100 22008KT P6SM SCT025 BKN250=



000
FTUS42 KMFL 280540
TAFMIA
TAF
KMIA 280540Z 2806/2906 VRB03KT P6SM FEW250
     FM281400 19010KT P6SM SCT035
     FM290100 VRB03KT P6SM FEW250=



    US Dept of Commerce
    National Oceanic and Atmospheric Administration
    National Weather Service
    1325 East West Highway
    Silver Spring, MD 20910
    Page Author: NWS Internet Services Team
Disclaimer
Information Quality
Credits
Glossary
Privacy Policy
Freedom of Information Act (FOIA)
About Us
Career Opportunities